sensor_id;sensor_type;location;lat;lon;timestamp;P1;durP1;ratioP1;P2;durP2;ratioP2
18997;SDS011;9632;51.018;4.284;2023-08-06T00:00:19;3.22;;;0.90;;
18997;SDS011;9632;51.018;4.284;2023-08-06T00:02:45;3.20;;;0.90;;
18997;SDS011;9632;51.018;4.284;2023-08-06T00:05:11;1.67;;;0.70;;
18997;SDS011;9632;51.018;4.284;2023-08-06T00:07:37;5.03;;;1.17;;
18997;SDS011;9632;51.018;4.284;2023-08-06T00:10:02;3.05;;;1.00;;
18997;SDS011;9632;51.018;4.284;2023-08-06T00:12:28;4.90;;;1.10;;
18997;SDS011;9632;51.018;4.284;2023-08-06T00:14:54;5.15;;;0.93;;
18997;SDS011;9632;51.018;4.284;2023-08-06T00:17:19;2.53;;;0.80;;
18997;SDS011;9632;51.018;4.284;2023-08-06T00:19:45;2.45;;;1.10;;
18997;SDS011;9632;51.018;4.284;2023-08-06T00:22:11;3.38;;;0.73;;
18997;SDS011;9632;51.018;4.284;2023-08-06T00:24:36;3.45;;;0.80;;
18997;SDS011;9632;51.018;4.284;2023-08-06T00:27:02;3.30;;;1.00;;
18997;SDS011;9632;51.018;4.284;2023-08-06T00:29:28;1.95;;;0.75;;
18997;SDS011;9632;51.018;4.284;2023-08-06T00:31:54;2.70;;;1.00;;
18997;SDS011;9632;51.018;4.284;2023-08-06T00:34:19;5.85;;;1.33;;
18997;SDS011;9632;51.018;4.284;2023-08-06T00:36:45;4.47;;;1.45;;
18997;SDS011;9632;51.018;4.284;2023-08-06T00:39:11;4.28;;;1.13;;
18997;SDS011;9632;51.018;4.284;2023-08-06T00:41:36;3.40;;;1.20;;
18997;SDS011;9632;51.018;4.284;2023-08-06T00:44:02;3.05;;;1.20;;
18997;SDS011;9632;51.018;4.284;2023-08-06T00:46:28;4.97;;;1.30;;
18997;SDS011;9632;51.018;4.284;2023-08-06T00:48:54;4.95;;;1.40;;
18997;SDS011;9632;51.018;4.284;2023-08-06T00:51:21;3.78;;;1.63;;
18997;SDS011;9632;51.018;4.284;2023-08-06T00:53:48;4.63;;;2.00;;
18997;SDS011;9632;51.018;4.284;2023-08-06T00:56:15;2.65;;;1.50;;
18997;SDS011;9632;51.018;4.284;2023-08-06T00:58:41;3.03;;;1.52;;
18997;SDS011;9632;51.018;4.284;2023-08-06T01:01:07;3.65;;;1.80;;
18997;SDS011;9632;51.018;4.284;2023-08-06T01:03:32;3.83;;;1.90;;
18997;SDS011;9632;51.018;4.284;2023-08-06T01:05:58;2.97;;;1.92;;
18997;SDS011;9632;51.018;4.284;2023-08-06T01:11:48;3.42;;;1.98;;
18997;SDS011;9632;51.018;4.284;2023-08-06T01:17:14;6.30;;;2.40;;
18997;SDS011;9632;51.018;4.284;2023-08-06T01:19:40;3.65;;;2.30;;
18997;SDS011;9632;51.018;4.284;2023-08-06T01:22:06;4.68;;;2.15;;
18997;SDS011;9632;51.018;4.284;2023-08-06T01:24:32;4.30;;;2.25;;
18997;SDS011;9632;51.018;4.284;2023-08-06T01:27:00;7.07;;;2.65;;
18997;SDS011;9632;51.018;4.284;2023-08-06T01:29:41;5.82;;;2.25;;
18997;SDS011;9632;51.018;4.284;2023-08-06T01:32:12;4.15;;;2.40;;
18997;SDS011;9632;51.018;4.284;2023-08-06T01:34:40;4.72;;;2.40;;
18997;SDS011;9632;51.018;4.284;2023-08-06T01:37:11;5.38;;;3.17;;
18997;SDS011;9632;51.018;4.284;2023-08-06T01:39:37;5.13;;;2.80;;
18997;SDS011;9632;51.018;4.284;2023-08-06T01:42:07;5.63;;;2.75;;
18997;SDS011;9632;51.018;4.284;2023-08-06T01:44:33;4.85;;;2.70;;
18997;SDS011;9632;51.018;4.284;2023-08-06T01:46:58;6.47;;;2.90;;
18997;SDS011;9632;51.018;4.284;2023-08-06T01:49:24;5.00;;;2.67;;
18997;SDS011;9632;51.018;4.284;2023-08-06T01:51:50;7.13;;;2.85;;
18997;SDS011;9632;51.018;4.284;2023-08-06T01:54:15;7.75;;;3.38;;
18997;SDS011;9632;51.018;4.284;2023-08-06T01:56:41;6.70;;;2.90;;
18997;SDS011;9632;51.018;4.284;2023-08-06T01:59:07;5.65;;;3.60;;
18997;SDS011;9632;51.018;4.284;2023-08-06T02:01:36;7.32;;;3.50;;
18997;SDS011;9632;51.018;4.284;2023-08-06T02:04:01;8.82;;;4.22;;
18997;SDS011;9632;51.018;4.284;2023-08-06T02:06:30;5.32;;;3.67;;
18997;SDS011;9632;51.018;4.284;2023-08-06T02:08:55;4.63;;;3.42;;
18997;SDS011;9632;51.018;4.284;2023-08-06T02:11:21;8.10;;;4.35;;
18997;SDS011;9632;51.018;4.284;2023-08-06T02:13:47;6.50;;;3.75;;
18997;SDS011;9632;51.018;4.284;2023-08-06T02:16:12;6.70;;;3.72;;
18997;SDS011;9632;51.018;4.284;2023-08-06T02:18:38;6.78;;;4.18;;
18997;SDS011;9632;51.018;4.284;2023-08-06T02:21:03;6.30;;;3.95;;
18997;SDS011;9632;51.018;4.284;2023-08-06T02:23:29;6.82;;;3.60;;
18997;SDS011;9632;51.018;4.284;2023-08-06T02:25:58;5.82;;;3.88;;
18997;SDS011;9632;51.018;4.284;2023-08-06T02:28:28;6.00;;;3.95;;
18997;SDS011;9632;51.018;4.284;2023-08-06T02:30:54;8.65;;;3.72;;
18997;SDS011;9632;51.018;4.284;2023-08-06T02:33:20;7.38;;;3.67;;
18997;SDS011;9632;51.018;4.284;2023-08-06T02:35:45;5.63;;;4.15;;
18997;SDS011;9632;51.018;4.284;2023-08-06T02:38:11;7.90;;;4.03;;
18997;SDS011;9632;51.018;4.284;2023-08-06T02:40:42;7.15;;;4.50;;
18997;SDS011;9632;51.018;4.284;2023-08-06T02:43:09;10.30;;;5.22;;
18997;SDS011;9632;51.018;4.284;2023-08-06T02:45:35;12.80;;;6.00;;
18997;SDS011;9632;51.018;4.284;2023-08-06T02:48:00;7.00;;;4.47;;
18997;SDS011;9632;51.018;4.284;2023-08-06T02:50:27;13.05;;;5.25;;
18997;SDS011;9632;51.018;4.284;2023-08-06T02:52:53;11.40;;;5.85;;
18997;SDS011;9632;51.018;4.284;2023-08-06T02:55:18;9.38;;;5.32;;
18997;SDS011;9632;51.018;4.284;2023-08-06T02:57:44;10.80;;;5.40;;
18997;SDS011;9632;51.018;4.284;2023-08-06T03:00:10;10.40;;;6.72;;
18997;SDS011;9632;51.018;4.284;2023-08-06T03:02:36;14.25;;;6.97;;
18997;SDS011;9632;51.018;4.284;2023-08-06T03:05:02;10.95;;;6.80;;
18997;SDS011;9632;51.018;4.284;2023-08-06T03:07:28;12.85;;;7.07;;
18997;SDS011;9632;51.018;4.284;2023-08-06T03:09:54;14.85;;;7.18;;
18997;SDS011;9632;51.018;4.284;2023-08-06T03:12:20;15.23;;;8.68;;
18997;SDS011;9632;51.018;4.284;2023-08-06T03:14:45;13.10;;;6.95;;
18997;SDS011;9632;51.018;4.284;2023-08-06T03:17:11;11.38;;;6.38;;
18997;SDS011;9632;51.018;4.284;2023-08-06T03:19:37;13.30;;;7.15;;
18997;SDS011;9632;51.018;4.284;2023-08-06T03:22:02;12.57;;;7.25;;
18997;SDS011;9632;51.018;4.284;2023-08-06T03:24:28;12.60;;;7.50;;
18997;SDS011;9632;51.018;4.284;2023-08-06T03:26:54;11.05;;;7.30;;
18997;SDS011;9632;51.018;4.284;2023-08-06T03:29:19;9.05;;;5.88;;
18997;SDS011;9632;51.018;4.284;2023-08-06T03:31:46;10.25;;;5.70;;
18997;SDS011;9632;51.018;4.284;2023-08-06T03:34:12;11.43;;;5.60;;
18997;SDS011;9632;51.018;4.284;2023-08-06T03:36:37;7.53;;;4.00;;
18997;SDS011;9632;51.018;4.284;2023-08-06T03:39:03;7.75;;;4.32;;
18997;SDS011;9632;51.018;4.284;2023-08-06T03:41:29;5.43;;;3.58;;
18997;SDS011;9632;51.018;4.284;2023-08-06T03:43:54;5.45;;;3.00;;
18997;SDS011;9632;51.018;4.284;2023-08-06T03:46:20;3.72;;;2.50;;
18997;SDS011;9632;51.018;4.284;2023-08-06T03:48:45;3.38;;;1.55;;
18997;SDS011;9632;51.018;4.284;2023-08-06T03:51:11;5.72;;;1.83;;
18997;SDS011;9632;51.018;4.284;2023-08-06T03:53:37;4.13;;;1.30;;
18997;SDS011;9632;51.018;4.284;2023-08-06T03:56:02;2.95;;;1.00;;
18997;SDS011;9632;51.018;4.284;2023-08-06T03:58:28;1.38;;;1.00;;
18997;SDS011;9632;51.018;4.284;2023-08-06T04:01:00;5.13;;;0.80;;
18997;SDS011;9632;51.018;4.284;2023-08-06T04:03:27;1.67;;;0.88;;
18997;SDS011;9632;51.018;4.284;2023-08-06T04:05:53;0.98;;;0.60;;
18997;SDS011;9632;51.018;4.284;2023-08-06T04:08:19;2.42;;;0.70;;
18997;SDS011;9632;51.018;4.284;2023-08-06T04:10:45;1.50;;;0.70;;
18997;SDS011;9632;51.018;4.284;2023-08-06T04:13:14;3.25;;;0.85;;
18997;SDS011;9632;51.018;4.284;2023-08-06T04:15:40;3.78;;;1.02;;
18997;SDS011;9632;51.018;4.284;2023-08-06T04:18:06;3.75;;;1.10;;
18997;SDS011;9632;51.018;4.284;2023-08-06T04:20:31;3.75;;;1.45;;
18997;SDS011;9632;51.018;4.284;2023-08-06T04:22:57;4.28;;;1.60;;
18997;SDS011;9632;51.018;4.284;2023-08-06T04:25:22;5.63;;;1.70;;
18997;SDS011;9632;51.018;4.284;2023-08-06T04:27:48;5.78;;;1.70;;
18997;SDS011;9632;51.018;4.284;2023-08-06T04:30:14;6.03;;;1.88;;
18997;SDS011;9632;51.018;4.284;2023-08-06T04:32:40;6.60;;;1.60;;
18997;SDS011;9632;51.018;4.284;2023-08-06T04:35:06;5.40;;;2.08;;
18997;SDS011;9632;51.018;4.284;2023-08-06T04:37:31;8.02;;;2.33;;
18997;SDS011;9632;51.018;4.284;2023-08-06T04:39:57;11.73;;;2.70;;
18997;SDS011;9632;51.018;4.284;2023-08-06T04:42:23;12.18;;;2.85;;
18997;SDS011;9632;51.018;4.284;2023-08-06T04:44:49;8.70;;;2.63;;
18997;SDS011;9632;51.018;4.284;2023-08-06T04:47:14;10.50;;;2.72;;
18997;SDS011;9632;51.018;4.284;2023-08-06T04:49:40;6.32;;;2.33;;
18997;SDS011;9632;51.018;4.284;2023-08-06T04:52:06;11.45;;;3.08;;
18997;SDS011;9632;51.018;4.284;2023-08-06T04:54:32;8.35;;;3.15;;
18997;SDS011;9632;51.018;4.284;2023-08-06T04:56:57;9.95;;;3.10;;
18997;SDS011;9632;51.018;4.284;2023-08-06T04:59:23;14.25;;;2.80;;
18997;SDS011;9632;51.018;4.284;2023-08-06T05:01:48;7.55;;;3.17;;
18997;SDS011;9632;51.018;4.284;2023-08-06T05:04:14;8.05;;;2.88;;
18997;SDS011;9632;51.018;4.284;2023-08-06T05:06:40;8.80;;;2.90;;
18997;SDS011;9632;51.018;4.284;2023-08-06T05:09:06;9.85;;;3.08;;
18997;SDS011;9632;51.018;4.284;2023-08-06T05:11:32;9.60;;;3.00;;
18997;SDS011;9632;51.018;4.284;2023-08-06T05:13:57;11.43;;;3.42;;
18997;SDS011;9632;51.018;4.284;2023-08-06T05:16:26;9.90;;;3.55;;
18997;SDS011;9632;51.018;4.284;2023-08-06T05:18:52;9.35;;;3.00;;
18997;SDS011;9632;51.018;4.284;2023-08-06T05:21:17;8.80;;;2.80;;
18997;SDS011;9632;51.018;4.284;2023-08-06T05:23:43;11.27;;;3.35;;
18997;SDS011;9632;51.018;4.284;2023-08-06T05:26:08;15.15;;;3.25;;
18997;SDS011;9632;51.018;4.284;2023-08-06T05:28:34;12.88;;;3.40;;
18997;SDS011;9632;51.018;4.284;2023-08-06T05:31:06;12.82;;;3.40;;
18997;SDS011;9632;51.018;4.284;2023-08-06T05:33:32;14.43;;;2.85;;
18997;SDS011;9632;51.018;4.284;2023-08-06T05:35:57;11.02;;;2.60;;
18997;SDS011;9632;51.018;4.284;2023-08-06T05:38:23;17.17;;;3.10;;
18997;SDS011;9632;51.018;4.284;2023-08-06T05:40:49;14.65;;;2.72;;
18997;SDS011;9632;51.018;4.284;2023-08-06T05:43:14;11.32;;;2.83;;
18997;SDS011;9632;51.018;4.284;2023-08-06T05:45:43;8.15;;;2.65;;
18997;SDS011;9632;51.018;4.284;2023-08-06T05:48:11;12.02;;;2.88;;
18997;SDS011;9632;51.018;4.284;2023-08-06T05:50:37;8.82;;;2.40;;
18997;SDS011;9632;51.018;4.284;2023-08-06T05:53:02;15.88;;;2.80;;
18997;SDS011;9632;51.018;4.284;2023-08-06T05:55:28;8.85;;;2.45;;
18997;SDS011;9632;51.018;4.284;2023-08-06T05:57:54;13.02;;;3.03;;
18997;SDS011;9632;51.018;4.284;2023-08-06T06:00:20;11.45;;;2.42;;
18997;SDS011;9632;51.018;4.284;2023-08-06T06:02:46;8.40;;;2.50;;
18997;SDS011;9632;51.018;4.284;2023-08-06T06:05:12;10.88;;;2.60;;
18997;SDS011;9632;51.018;4.284;2023-08-06T06:07:37;21.48;;;3.53;;
18997;SDS011;9632;51.018;4.284;2023-08-06T06:10:03;14.45;;;2.90;;
18997;SDS011;9632;51.018;4.284;2023-08-06T06:12:29;15.32;;;3.38;;
18997;SDS011;9632;51.018;4.284;2023-08-06T06:14:55;15.77;;;3.20;;
18997;SDS011;9632;51.018;4.284;2023-08-06T06:17:21;10.95;;;2.88;;
18997;SDS011;9632;51.018;4.284;2023-08-06T06:19:46;13.23;;;3.55;;
18997;SDS011;9632;51.018;4.284;2023-08-06T06:22:13;11.30;;;3.05;;
18997;SDS011;9632;51.018;4.284;2023-08-06T06:24:39;16.50;;;3.30;;
18997;SDS011;9632;51.018;4.284;2023-08-06T06:27:05;15.73;;;2.80;;
18997;SDS011;9632;51.018;4.284;2023-08-06T06:29:30;12.57;;;3.33;;
18997;SDS011;9632;51.018;4.284;2023-08-06T06:31:56;14.05;;;3.40;;
18997;SDS011;9632;51.018;4.284;2023-08-06T06:34:22;12.48;;;3.20;;
18997;SDS011;9632;51.018;4.284;2023-08-06T06:36:47;17.02;;;3.55;;
18997;SDS011;9632;51.018;4.284;2023-08-06T06:39:13;12.77;;;3.35;;
18997;SDS011;9632;51.018;4.284;2023-08-06T06:41:39;13.13;;;3.47;;
18997;SDS011;9632;51.018;4.284;2023-08-06T06:44:05;9.63;;;2.75;;
18997;SDS011;9632;51.018;4.284;2023-08-06T06:46:31;8.20;;;3.08;;
18997;SDS011;9632;51.018;4.284;2023-08-06T06:48:56;7.13;;;2.72;;
18997;SDS011;9632;51.018;4.284;2023-08-06T06:51:22;15.70;;;2.70;;
18997;SDS011;9632;51.018;4.284;2023-08-06T06:53:48;10.98;;;2.55;;
18997;SDS011;9632;51.018;4.284;2023-08-06T06:56:14;12.40;;;2.22;;
18997;SDS011;9632;51.018;4.284;2023-08-06T06:58:39;11.23;;;2.42;;
18997;SDS011;9632;51.018;4.284;2023-08-06T07:01:06;11.75;;;2.35;;
18997;SDS011;9632;51.018;4.284;2023-08-06T07:03:34;10.32;;;2.50;;
18997;SDS011;9632;51.018;4.284;2023-08-06T07:06:01;12.80;;;2.35;;
18997;SDS011;9632;51.018;4.284;2023-08-06T07:08:26;11.25;;;2.00;;
18997;SDS011;9632;51.018;4.284;2023-08-06T07:11:01;11.10;;;1.77;;
18997;SDS011;9632;51.018;4.284;2023-08-06T07:13:28;11.80;;;2.00;;
18997;SDS011;9632;51.018;4.284;2023-08-06T07:15:54;16.95;;;1.80;;
18997;SDS011;9632;51.018;4.284;2023-08-06T07:18:20;11.52;;;1.50;;
18997;SDS011;9632;51.018;4.284;2023-08-06T07:20:50;13.90;;;1.73;;
18997;SDS011;9632;51.018;4.284;2023-08-06T07:23:16;14.05;;;1.58;;
18997;SDS011;9632;51.018;4.284;2023-08-06T07:25:43;12.85;;;1.80;;
18997;SDS011;9632;51.018;4.284;2023-08-06T07:28:09;15.75;;;1.50;;
18997;SDS011;9632;51.018;4.284;2023-08-06T07:30:39;9.32;;;1.20;;
18997;SDS011;9632;51.018;4.284;2023-08-06T07:33:05;16.30;;;1.88;;
18997;SDS011;9632;51.018;4.284;2023-08-06T07:35:31;15.48;;;1.75;;
18997;SDS011;9632;51.018;4.284;2023-08-06T07:37:57;10.90;;;1.27;;
18997;SDS011;9632;51.018;4.284;2023-08-06T07:40:23;12.80;;;1.73;;
18997;SDS011;9632;51.018;4.284;2023-08-06T07:42:49;10.32;;;1.35;;
18997;SDS011;9632;51.018;4.284;2023-08-06T07:45:15;16.75;;;1.73;;
18997;SDS011;9632;51.018;4.284;2023-08-06T07:47:43;16.92;;;1.70;;
18997;SDS011;9632;51.018;4.284;2023-08-06T07:50:09;11.60;;;1.80;;
18997;SDS011;9632;51.018;4.284;2023-08-06T07:52:35;15.05;;;1.70;;
18997;SDS011;9632;51.018;4.284;2023-08-06T07:55:00;19.00;;;2.05;;
18997;SDS011;9632;51.018;4.284;2023-08-06T07:57:30;13.75;;;2.05;;
18997;SDS011;9632;51.018;4.284;2023-08-06T08:00:00;18.27;;;2.00;;
18997;SDS011;9632;51.018;4.284;2023-08-06T08:02:26;10.05;;;1.95;;
18997;SDS011;9632;51.018;4.284;2023-08-06T08:04:52;10.35;;;1.77;;
18997;SDS011;9632;51.018;4.284;2023-08-06T08:07:18;15.90;;;1.75;;
18997;SDS011;9632;51.018;4.284;2023-08-06T08:09:44;11.75;;;1.52;;
18997;SDS011;9632;51.018;4.284;2023-08-06T08:12:10;8.48;;;1.40;;
18997;SDS011;9632;51.018;4.284;2023-08-06T08:14:35;11.63;;;1.70;;
18997;SDS011;9632;51.018;4.284;2023-08-06T08:17:04;10.75;;;1.65;;
18997;SDS011;9632;51.018;4.284;2023-08-06T08:19:31;11.75;;;1.55;;
18997;SDS011;9632;51.018;4.284;2023-08-06T08:21:57;7.57;;;1.40;;
18997;SDS011;9632;51.018;4.284;2023-08-06T08:24:23;13.75;;;1.33;;
18997;SDS011;9632;51.018;4.284;2023-08-06T08:26:52;11.05;;;1.80;;
18997;SDS011;9632;51.018;4.284;2023-08-06T08:29:21;12.30;;;1.80;;
18997;SDS011;9632;51.018;4.284;2023-08-06T08:31:47;12.55;;;1.60;;
18997;SDS011;9632;51.018;4.284;2023-08-06T08:34:15;15.10;;;1.75;;
18997;SDS011;9632;51.018;4.284;2023-08-06T08:36:41;10.75;;;1.70;;
18997;SDS011;9632;51.018;4.284;2023-08-06T08:39:07;13.98;;;1.63;;
18997;SDS011;9632;51.018;4.284;2023-08-06T08:41:33;11.40;;;1.52;;
18997;SDS011;9632;51.018;4.284;2023-08-06T08:44:01;13.48;;;1.60;;
18997;SDS011;9632;51.018;4.284;2023-08-06T08:46:29;12.23;;;1.38;;
18997;SDS011;9632;51.018;4.284;2023-08-06T08:48:56;16.25;;;2.15;;
18997;SDS011;9632;51.018;4.284;2023-08-06T08:51:24;11.85;;;1.70;;
18997;SDS011;9632;51.018;4.284;2023-08-06T08:53:52;12.70;;;2.15;;
18997;SDS011;9632;51.018;4.284;2023-08-06T08:56:21;12.10;;;1.60;;
18997;SDS011;9632;51.018;4.284;2023-08-06T08:58:47;11.20;;;1.80;;
18997;SDS011;9632;51.018;4.284;2023-08-06T09:01:13;12.73;;;2.10;;
18997;SDS011;9632;51.018;4.284;2023-08-06T09:03:40;12.75;;;1.80;;
18997;SDS011;9632;51.018;4.284;2023-08-06T09:06:07;16.33;;;2.00;;
18997;SDS011;9632;51.018;4.284;2023-08-06T09:08:37;14.43;;;2.00;;
18997;SDS011;9632;51.018;4.284;2023-08-06T09:11:08;13.48;;;1.77;;
18997;SDS011;9632;51.018;4.284;2023-08-06T09:13:38;13.68;;;2.15;;
18997;SDS011;9632;51.018;4.284;2023-08-06T09:16:04;12.48;;;2.28;;
18997;SDS011;9632;51.018;4.284;2023-08-06T09:18:30;19.02;;;2.10;;
18997;SDS011;9632;51.018;4.284;2023-08-06T09:20:56;14.40;;;2.58;;
18997;SDS011;9632;51.018;4.284;2023-08-06T09:23:29;9.20;;;1.83;;
18997;SDS011;9632;51.018;4.284;2023-08-06T09:25:56;13.68;;;2.38;;
18997;SDS011;9632;51.018;4.284;2023-08-06T09:28:23;12.43;;;1.58;;
18997;SDS011;9632;51.018;4.284;2023-08-06T09:30:52;12.15;;;1.95;;
18997;SDS011;9632;51.018;4.284;2023-08-06T09:33:20;9.32;;;1.70;;
18997;SDS011;9632;51.018;4.284;2023-08-06T09:35:48;10.63;;;1.60;;
18997;SDS011;9632;51.018;4.284;2023-08-06T09:38:13;11.77;;;1.70;;
18997;SDS011;9632;51.018;4.284;2023-08-06T09:40:39;16.13;;;2.20;;
18997;SDS011;9632;51.018;4.284;2023-08-06T09:43:05;18.33;;;2.20;;
18997;SDS011;9632;51.018;4.284;2023-08-06T09:45:36;13.30;;;1.75;;
18997;SDS011;9632;51.018;4.284;2023-08-06T09:48:05;17.67;;;2.20;;
18997;SDS011;9632;51.018;4.284;2023-08-06T09:50:33;12.25;;;2.03;;
18997;SDS011;9632;51.018;4.284;2023-08-06T09:53:06;18.13;;;2.10;;
18997;SDS011;9632;51.018;4.284;2023-08-06T09:55:33;14.55;;;2.28;;
18997;SDS011;9632;51.018;4.284;2023-08-06T09:58:00;12.40;;;1.80;;
18997;SDS011;9632;51.018;4.284;2023-08-06T10:00:26;11.95;;;1.90;;
18997;SDS011;9632;51.018;4.284;2023-08-06T10:02:53;16.02;;;2.20;;
18997;SDS011;9632;51.018;4.284;2023-08-06T10:05:21;21.02;;;2.45;;
18997;SDS011;9632;51.018;4.284;2023-08-06T10:07:48;16.80;;;3.05;;
18997;SDS011;9632;51.018;4.284;2023-08-06T10:10:16;18.13;;;2.60;;
18997;SDS011;9632;51.018;4.284;2023-08-06T10:12:46;14.32;;;2.53;;
18997;SDS011;9632;51.018;4.284;2023-08-06T10:15:17;18.05;;;2.55;;
18997;SDS011;9632;51.018;4.284;2023-08-06T10:17:54;11.48;;;1.92;;
18997;SDS011;9632;51.018;4.284;2023-08-06T10:20:21;18.45;;;2.15;;
18997;SDS011;9632;51.018;4.284;2023-08-06T10:23:09;17.00;;;2.55;;
18997;SDS011;9632;51.018;4.284;2023-08-06T10:25:34;15.02;;;2.67;;
18997;SDS011;9632;51.018;4.284;2023-08-06T10:28:01;14.77;;;2.83;;
18997;SDS011;9632;51.018;4.284;2023-08-06T10:30:34;17.65;;;3.47;;
18997;SDS011;9632;51.018;4.284;2023-08-06T10:33:07;18.70;;;3.00;;
18997;SDS011;9632;51.018;4.284;2023-08-06T10:35:43;17.50;;;2.80;;
18997;SDS011;9632;51.018;4.284;2023-08-06T10:38:13;15.23;;;2.55;;
18997;SDS011;9632;51.018;4.284;2023-08-06T10:43:32;11.82;;;2.10;;
18997;SDS011;9632;51.018;4.284;2023-08-06T10:46:00;16.15;;;2.28;;
18997;SDS011;9632;51.018;4.284;2023-08-06T10:51:00;12.20;;;1.85;;
18997;SDS011;9632;51.018;4.284;2023-08-06T10:53:26;9.30;;;2.20;;
18997;SDS011;9632;51.018;4.284;2023-08-06T10:55:52;10.93;;;1.90;;
18997;SDS011;9632;51.018;4.284;2023-08-06T10:58:18;9.63;;;2.22;;
18997;SDS011;9632;51.018;4.284;2023-08-06T11:00:43;11.18;;;2.35;;
18997;SDS011;9632;51.018;4.284;2023-08-06T11:03:09;13.45;;;2.42;;
18997;SDS011;9632;51.018;4.284;2023-08-06T11:05:38;15.13;;;2.15;;
18997;SDS011;9632;51.018;4.284;2023-08-06T11:08:04;16.23;;;2.40;;
18997;SDS011;9632;51.018;4.284;2023-08-06T11:10:32;13.23;;;2.45;;
18997;SDS011;9632;51.018;4.284;2023-08-06T11:13:01;9.57;;;2.33;;
18997;SDS011;9632;51.018;4.284;2023-08-06T11:15:28;12.00;;;2.25;;
18997;SDS011;9632;51.018;4.284;2023-08-06T11:17:55;9.02;;;2.15;;
18997;SDS011;9632;51.018;4.284;2023-08-06T11:20:20;10.40;;;1.60;;
18997;SDS011;9632;51.018;4.284;2023-08-06T11:22:47;9.82;;;2.20;;
18997;SDS011;9632;51.018;4.284;2023-08-06T11:25:13;18.02;;;2.30;;
18997;SDS011;9632;51.018;4.284;2023-08-06T11:27:38;9.13;;;2.20;;
18997;SDS011;9632;51.018;4.284;2023-08-06T11:30:04;10.43;;;2.55;;
18997;SDS011;9632;51.018;4.284;2023-08-06T11:32:30;15.52;;;2.58;;
18997;SDS011;9632;51.018;4.284;2023-08-06T11:34:57;10.25;;;2.30;;
18997;SDS011;9632;51.018;4.284;2023-08-06T11:37:23;11.13;;;2.42;;
18997;SDS011;9632;51.018;4.284;2023-08-06T11:39:50;11.85;;;2.08;;
18997;SDS011;9632;51.018;4.284;2023-08-06T11:42:16;8.55;;;2.05;;
18997;SDS011;9632;51.018;4.284;2023-08-06T11:44:42;10.65;;;2.20;;
18997;SDS011;9632;51.018;4.284;2023-08-06T11:47:12;12.07;;;1.83;;
18997;SDS011;9632;51.018;4.284;2023-08-06T11:49:45;12.93;;;2.17;;
18997;SDS011;9632;51.018;4.284;2023-08-06T11:54:45;10.98;;;1.52;;
18997;SDS011;9632;51.018;4.284;2023-08-06T11:57:11;10.90;;;1.50;;
18997;SDS011;9632;51.018;4.284;2023-08-06T11:59:38;13.43;;;1.35;;
18997;SDS011;9632;51.018;4.284;2023-08-06T12:02:04;9.45;;;1.50;;
18997;SDS011;9632;51.018;4.284;2023-08-06T12:07:41;10.73;;;1.55;;
18997;SDS011;9632;51.018;4.284;2023-08-06T12:10:09;13.85;;;2.03;;
18997;SDS011;9632;51.018;4.284;2023-08-06T12:12:35;14.45;;;2.17;;
18997;SDS011;9632;51.018;4.284;2023-08-06T12:15:02;13.00;;;2.00;;
18997;SDS011;9632;51.018;4.284;2023-08-06T12:17:28;15.65;;;2.50;;
18997;SDS011;9632;51.018;4.284;2023-08-06T12:19:54;18.35;;;2.20;;
18997;SDS011;9632;51.018;4.284;2023-08-06T12:22:19;14.88;;;2.03;;
18997;SDS011;9632;51.018;4.284;2023-08-06T12:24:45;14.27;;;2.13;;
18997;SDS011;9632;51.018;4.284;2023-08-06T12:27:12;14.40;;;2.25;;
18997;SDS011;9632;51.018;4.284;2023-08-06T12:29:45;17.75;;;1.90;;
18997;SDS011;9632;51.018;4.284;2023-08-06T12:32:12;9.77;;;1.67;;
18997;SDS011;9632;51.018;4.284;2023-08-06T12:34:39;14.30;;;1.70;;
18997;SDS011;9632;51.018;4.284;2023-08-06T12:37:05;9.02;;;1.45;;
18997;SDS011;9632;51.018;4.284;2023-08-06T12:39:35;11.82;;;1.83;;
18997;SDS011;9632;51.018;4.284;2023-08-06T12:42:02;15.07;;;2.03;;
18997;SDS011;9632;51.018;4.284;2023-08-06T12:44:29;15.15;;;2.00;;
18997;SDS011;9632;51.018;4.284;2023-08-06T12:46:55;17.85;;;2.25;;
18997;SDS011;9632;51.018;4.284;2023-08-06T12:49:20;15.20;;;1.90;;
18997;SDS011;9632;51.018;4.284;2023-08-06T12:51:46;11.90;;;1.80;;
18997;SDS011;9632;51.018;4.284;2023-08-06T12:54:19;15.80;;;1.92;;
18997;SDS011;9632;51.018;4.284;2023-08-06T12:56:45;18.23;;;1.98;;
18997;SDS011;9632;51.018;4.284;2023-08-06T12:59:16;12.95;;;2.00;;
18997;SDS011;9632;51.018;4.284;2023-08-06T13:01:42;17.55;;;2.25;;
18997;SDS011;9632;51.018;4.284;2023-08-06T13:04:08;15.77;;;2.33;;
18997;SDS011;9632;51.018;4.284;2023-08-06T13:06:34;16.95;;;2.55;;
18997;SDS011;9632;51.018;4.284;2023-08-06T13:09:04;13.65;;;2.60;;
18997;SDS011;9632;51.018;4.284;2023-08-06T13:11:36;17.50;;;2.67;;
18997;SDS011;9632;51.018;4.284;2023-08-06T13:14:07;17.42;;;2.60;;
18997;SDS011;9632;51.018;4.284;2023-08-06T13:16:34;20.65;;;2.60;;
18997;SDS011;9632;51.018;4.284;2023-08-06T13:19:01;11.82;;;2.40;;
18997;SDS011;9632;51.018;4.284;2023-08-06T13:21:31;13.68;;;2.25;;
18997;SDS011;9632;51.018;4.284;2023-08-06T13:23:58;21.10;;;2.55;;
18997;SDS011;9632;51.018;4.284;2023-08-06T13:26:24;18.00;;;3.05;;
18997;SDS011;9632;51.018;4.284;2023-08-06T13:28:49;13.50;;;2.85;;
18997;SDS011;9632;51.018;4.284;2023-08-06T13:31:15;25.52;;;3.33;;
18997;SDS011;9632;51.018;4.284;2023-08-06T13:33:41;18.58;;;3.28;;
18997;SDS011;9632;51.018;4.284;2023-08-06T13:36:07;17.00;;;2.88;;
18997;SDS011;9632;51.018;4.284;2023-08-06T13:38:32;16.40;;;2.25;;
18997;SDS011;9632;51.018;4.284;2023-08-06T13:40:58;14.30;;;2.20;;
18997;SDS011;9632;51.018;4.284;2023-08-06T13:43:24;15.18;;;1.80;;
18997;SDS011;9632;51.018;4.284;2023-08-06T13:45:49;16.02;;;1.70;;
18997;SDS011;9632;51.018;4.284;2023-08-06T13:48:15;15.30;;;2.40;;
18997;SDS011;9632;51.018;4.284;2023-08-06T13:50:41;16.60;;;2.10;;
18997;SDS011;9632;51.018;4.284;2023-08-06T13:53:06;10.75;;;2.28;;
18997;SDS011;9632;51.018;4.284;2023-08-06T13:55:32;14.05;;;2.22;;
18997;SDS011;9632;51.018;4.284;2023-08-06T13:57:58;16.67;;;2.20;;
18997;SDS011;9632;51.018;4.284;2023-08-06T14:00:23;15.68;;;3.00;;
18997;SDS011;9632;51.018;4.284;2023-08-06T14:02:49;14.77;;;2.55;;
18997;SDS011;9632;51.018;4.284;2023-08-06T14:05:15;16.00;;;2.17;;
18997;SDS011;9632;51.018;4.284;2023-08-06T14:07:40;17.58;;;2.97;;
18997;SDS011;9632;51.018;4.284;2023-08-06T14:10:06;15.57;;;2.83;;
18997;SDS011;9632;51.018;4.284;2023-08-06T14:12:34;14.82;;;2.53;;
18997;SDS011;9632;51.018;4.284;2023-08-06T14:14:59;18.58;;;2.70;;
18997;SDS011;9632;51.018;4.284;2023-08-06T14:17:25;19.63;;;3.25;;
18997;SDS011;9632;51.018;4.284;2023-08-06T14:19:51;16.98;;;2.90;;
18997;SDS011;9632;51.018;4.284;2023-08-06T14:22:16;21.52;;;3.25;;
18997;SDS011;9632;51.018;4.284;2023-08-06T14:24:42;17.25;;;2.60;;
18997;SDS011;9632;51.018;4.284;2023-08-06T14:27:08;20.50;;;3.15;;
18997;SDS011;9632;51.018;4.284;2023-08-06T14:29:33;15.02;;;2.80;;
18997;SDS011;9632;51.018;4.284;2023-08-06T14:31:59;18.58;;;2.67;;
18997;SDS011;9632;51.018;4.284;2023-08-06T14:34:25;13.40;;;2.65;;
18997;SDS011;9632;51.018;4.284;2023-08-06T14:36:50;18.75;;;2.83;;
18997;SDS011;9632;51.018;4.284;2023-08-06T14:39:16;13.30;;;2.47;;
18997;SDS011;9632;51.018;4.284;2023-08-06T14:41:42;17.80;;;3.28;;
18997;SDS011;9632;51.018;4.284;2023-08-06T14:44:07;12.55;;;2.58;;
18997;SDS011;9632;51.018;4.284;2023-08-06T14:46:33;20.42;;;3.08;;
18997;SDS011;9632;51.018;4.284;2023-08-06T14:48:58;16.88;;;3.00;;
18997;SDS011;9632;51.018;4.284;2023-08-06T14:51:24;13.85;;;2.08;;
18997;SDS011;9632;51.018;4.284;2023-08-06T14:53:50;9.65;;;1.73;;
18997;SDS011;9632;51.018;4.284;2023-08-06T14:56:16;7.80;;;1.25;;
18997;SDS011;9632;51.018;4.284;2023-08-06T14:58:42;11.77;;;1.85;;
18997;SDS011;9632;51.018;4.284;2023-08-06T15:01:07;10.73;;;1.20;;
18997;SDS011;9632;51.018;4.284;2023-08-06T15:03:33;10.27;;;1.63;;
18997;SDS011;9632;51.018;4.284;2023-08-06T15:05:59;8.63;;;1.30;;